sensor_id;sensor_type;location;lat;lon;timestamp;P1;durP1;ratioP1;P2;durP2;ratioP2
75746;SDS011;70632;52.232;21.038;2024-02-04T00:01:40;5.57;;;1.80;;
75746;SDS011;70632;52.232;21.038;2024-02-04T00:04:06;7.32;;;2.50;;
75746;SDS011;70632;52.232;21.038;2024-02-04T00:06:32;15.43;;;3.95;;
75746;SDS011;70632;52.232;21.038;2024-02-04T00:08:58;10.90;;;2.58;;
75746;SDS011;70632;52.232;21.038;2024-02-04T00:11:24;5.05;;;2.03;;
75746;SDS011;70632;52.232;21.038;2024-02-04T00:13:49;7.15;;;2.00;;
75746;SDS011;70632;52.232;21.038;2024-02-04T00:16:15;9.55;;;2.40;;
75746;SDS011;70632;52.232;21.038;2024-02-04T00:18:41;7.22;;;2.40;;
75746;SDS011;70632;52.232;21.038;2024-02-04T00:21:07;9.88;;;2.05;;
75746;SDS011;70632;52.232;21.038;2024-02-04T00:23:32;6.90;;;2.75;;
75746;SDS011;70632;52.232;21.038;2024-02-04T00:25:58;11.77;;;2.65;;
75746;SDS011;70632;52.232;21.038;2024-02-04T00:28:24;9.20;;;2.25;;
75746;SDS011;70632;52.232;21.038;2024-02-04T00:30:51;7.50;;;2.15;;
75746;SDS011;70632;52.232;21.038;2024-02-04T00:35:46;6.63;;;1.92;;
75746;SDS011;70632;52.232;21.038;2024-02-04T00:38:11;8.90;;;2.63;;
75746;SDS011;70632;52.232;21.038;2024-02-04T00:40:37;8.13;;;2.47;;
75746;SDS011;70632;52.232;21.038;2024-02-04T00:43:03;17.08;;;3.50;;
75746;SDS011;70632;52.232;21.038;2024-02-04T00:45:29;13.18;;;2.97;;
75746;SDS011;70632;52.232;21.038;2024-02-04T00:47:56;8.70;;;2.38;;
75746;SDS011;70632;52.232;21.038;2024-02-04T00:50:22;12.25;;;2.85;;
75746;SDS011;70632;52.232;21.038;2024-02-04T00:52:48;13.00;;;3.13;;
75746;SDS011;70632;52.232;21.038;2024-02-04T00:55:13;10.63;;;3.30;;
75746;SDS011;70632;52.232;21.038;2024-02-04T00:57:39;8.80;;;2.20;;
75746;SDS011;70632;52.232;21.038;2024-02-04T01:00:05;8.75;;;2.53;;
75746;SDS011;70632;52.232;21.038;2024-02-04T01:02:33;7.63;;;2.38;;
75746;SDS011;70632;52.232;21.038;2024-02-04T01:04:59;10.40;;;2.75;;
75746;SDS011;70632;52.232;21.038;2024-02-04T01:07:31;7.95;;;2.53;;
75746;SDS011;70632;52.232;21.038;2024-02-04T01:09:57;9.98;;;2.30;;
75746;SDS011;70632;52.232;21.038;2024-02-04T01:12:23;10.18;;;2.67;;
75746;SDS011;70632;52.232;21.038;2024-02-04T01:14:49;11.45;;;2.45;;
75746;SDS011;70632;52.232;21.038;2024-02-04T01:17:15;9.68;;;2.90;;
75746;SDS011;70632;52.232;21.038;2024-02-04T01:19:41;13.70;;;2.97;;
75746;SDS011;70632;52.232;21.038;2024-02-04T01:22:06;11.65;;;2.58;;
75746;SDS011;70632;52.232;21.038;2024-02-04T01:24:32;11.20;;;2.90;;
75746;SDS011;70632;52.232;21.038;2024-02-04T01:26:58;10.48;;;3.00;;
75746;SDS011;70632;52.232;21.038;2024-02-04T01:29:24;7.60;;;2.10;;
75746;SDS011;70632;52.232;21.038;2024-02-04T01:31:50;10.98;;;2.95;;
75746;SDS011;70632;52.232;21.038;2024-02-04T01:34:16;6.25;;;2.63;;
75746;SDS011;70632;52.232;21.038;2024-02-04T01:36:43;10.90;;;2.80;;
75746;SDS011;70632;52.232;21.038;2024-02-04T01:39:11;8.63;;;2.80;;
75746;SDS011;70632;52.232;21.038;2024-02-04T01:41:37;7.82;;;2.70;;
75746;SDS011;70632;52.232;21.038;2024-02-04T01:44:05;12.60;;;3.83;;
75746;SDS011;70632;52.232;21.038;2024-02-04T01:46:31;7.53;;;2.45;;
75746;SDS011;70632;52.232;21.038;2024-02-04T01:48:57;10.05;;;2.28;;
75746;SDS011;70632;52.232;21.038;2024-02-04T01:51:23;11.20;;;2.90;;
75746;SDS011;70632;52.232;21.038;2024-02-04T01:53:49;6.60;;;2.90;;
75746;SDS011;70632;52.232;21.038;2024-02-04T01:56:15;10.20;;;2.63;;
75746;SDS011;70632;52.232;21.038;2024-02-04T01:58:42;6.97;;;2.72;;
75746;SDS011;70632;52.232;21.038;2024-02-04T02:01:11;13.68;;;2.60;;
75746;SDS011;70632;52.232;21.038;2024-02-04T02:03:38;9.70;;;3.28;;
75746;SDS011;70632;52.232;21.038;2024-02-04T02:06:04;14.38;;;2.88;;
75746;SDS011;70632;52.232;21.038;2024-02-04T02:08:31;7.25;;;2.40;;
75746;SDS011;70632;52.232;21.038;2024-02-04T02:11:05;11.43;;;3.10;;
75746;SDS011;70632;52.232;21.038;2024-02-04T02:13:37;7.88;;;2.20;;
75746;SDS011;70632;52.232;21.038;2024-02-04T02:16:07;8.77;;;2.28;;
75746;SDS011;70632;52.232;21.038;2024-02-04T02:18:44;8.98;;;2.45;;
75746;SDS011;70632;52.232;21.038;2024-02-04T02:21:30;10.77;;;3.33;;
75746;SDS011;70632;52.232;21.038;2024-02-04T02:26:49;13.27;;;2.60;;
75746;SDS011;70632;52.232;21.038;2024-02-04T02:29:16;13.30;;;2.50;;
75746;SDS011;70632;52.232;21.038;2024-02-04T02:31:42;13.25;;;2.83;;
75746;SDS011;70632;52.232;21.038;2024-02-04T02:34:09;9.85;;;3.28;;
75746;SDS011;70632;52.232;21.038;2024-02-04T02:36:45;9.43;;;2.22;;
75746;SDS011;70632;52.232;21.038;2024-02-04T02:39:19;13.13;;;2.42;;
75746;SDS011;70632;52.232;21.038;2024-02-04T02:41:49;6.05;;;2.45;;
75746;SDS011;70632;52.232;21.038;2024-02-04T02:44:16;10.60;;;2.80;;
75746;SDS011;70632;52.232;21.038;2024-02-04T02:46:43;7.72;;;1.98;;
75746;SDS011;70632;52.232;21.038;2024-02-04T02:49:14;6.60;;;2.20;;
75746;SDS011;70632;52.232;21.038;2024-02-04T02:51:42;10.48;;;2.67;;
75746;SDS011;70632;52.232;21.038;2024-02-04T02:54:11;7.50;;;2.58;;
75746;SDS011;70632;52.232;21.038;2024-02-04T02:56:37;10.43;;;2.67;;
75746;SDS011;70632;52.232;21.038;2024-02-04T02:59:09;17.52;;;2.83;;
75746;SDS011;70632;52.232;21.038;2024-02-04T03:01:39;9.48;;;2.53;;
75746;SDS011;70632;52.232;21.038;2024-02-04T03:04:05;7.13;;;2.08;;
75746;SDS011;70632;52.232;21.038;2024-02-04T03:06:31;6.38;;;2.28;;
75746;SDS011;70632;52.232;21.038;2024-02-04T03:08:57;9.23;;;2.75;;
75746;SDS011;70632;52.232;21.038;2024-02-04T03:11:23;10.93;;;2.67;;
75746;SDS011;70632;52.232;21.038;2024-02-04T03:13:49;10.63;;;2.60;;
75746;SDS011;70632;52.232;21.038;2024-02-04T03:16:15;6.22;;;2.28;;
75746;SDS011;70632;52.232;21.038;2024-02-04T03:18:43;9.25;;;2.83;;
75746;SDS011;70632;52.232;21.038;2024-02-04T03:21:20;6.00;;;2.45;;
75746;SDS011;70632;52.232;21.038;2024-02-04T03:23:48;13.15;;;2.65;;
75746;SDS011;70632;52.232;21.038;2024-02-04T03:26:25;9.50;;;2.58;;
75746;SDS011;70632;52.232;21.038;2024-02-04T03:28:52;8.13;;;2.15;;
75746;SDS011;70632;52.232;21.038;2024-02-04T03:31:22;2.88;;;1.65;;
75746;SDS011;70632;52.232;21.038;2024-02-04T03:33:48;10.77;;;1.83;;
75746;SDS011;70632;52.232;21.038;2024-02-04T03:36:19;15.80;;;4.40;;
75746;SDS011;70632;52.232;21.038;2024-02-04T03:38:49;7.88;;;2.72;;
75746;SDS011;70632;52.232;21.038;2024-02-04T03:41:16;8.40;;;2.83;;
75746;SDS011;70632;52.232;21.038;2024-02-04T03:43:42;8.35;;;2.42;;
75746;SDS011;70632;52.232;21.038;2024-02-04T03:46:07;8.27;;;2.97;;
75746;SDS011;70632;52.232;21.038;2024-02-04T03:48:34;6.35;;;2.28;;
75746;SDS011;70632;52.232;21.038;2024-02-04T03:51:01;7.28;;;1.85;;
75746;SDS011;70632;52.232;21.038;2024-02-04T03:53:28;5.07;;;2.20;;
75746;SDS011;70632;52.232;21.038;2024-02-04T03:55:56;7.18;;;2.28;;
75746;SDS011;70632;52.232;21.038;2024-02-04T03:58:22;5.95;;;1.30;;
75746;SDS011;70632;52.232;21.038;2024-02-04T04:00:57;10.30;;;2.00;;
75746;SDS011;70632;52.232;21.038;2024-02-04T04:03:23;9.27;;;2.25;;
75746;SDS011;70632;52.232;21.038;2024-02-04T04:05:49;6.07;;;2.08;;
75746;SDS011;70632;52.232;21.038;2024-02-04T04:08:15;11.23;;;1.77;;
75746;SDS011;70632;52.232;21.038;2024-02-04T04:10:42;9.20;;;2.30;;
75746;SDS011;70632;52.232;21.038;2024-02-04T04:13:13;6.55;;;1.80;;
75746;SDS011;70632;52.232;21.038;2024-02-04T04:15:41;8.65;;;2.25;;
75746;SDS011;70632;52.232;21.038;2024-02-04T04:18:09;6.15;;;2.42;;
75746;SDS011;70632;52.232;21.038;2024-02-04T04:20:39;5.75;;;1.73;;
75746;SDS011;70632;52.232;21.038;2024-02-04T04:23:07;4.90;;;2.25;;
75746;SDS011;70632;52.232;21.038;2024-02-04T04:25:39;8.98;;;2.55;;
75746;SDS011;70632;52.232;21.038;2024-02-04T04:28:05;8.07;;;2.10;;
75746;SDS011;70632;52.232;21.038;2024-02-04T04:30:31;8.07;;;2.25;;
75746;SDS011;70632;52.232;21.038;2024-02-04T04:33:02;8.82;;;2.95;;
75746;SDS011;70632;52.232;21.038;2024-02-04T04:35:29;4.53;;;2.03;;
75746;SDS011;70632;52.232;21.038;2024-02-04T04:37:56;9.63;;;2.42;;
75746;SDS011;70632;52.232;21.038;2024-02-04T04:40:25;6.70;;;2.00;;
75746;SDS011;70632;52.232;21.038;2024-02-04T04:42:50;6.57;;;1.40;;
75746;SDS011;70632;52.232;21.038;2024-02-04T04:45:16;7.22;;;1.92;;
75746;SDS011;70632;52.232;21.038;2024-02-04T04:47:42;8.75;;;1.85;;
75746;SDS011;70632;52.232;21.038;2024-02-04T04:50:08;5.70;;;1.65;;
75746;SDS011;70632;52.232;21.038;2024-02-04T04:52:34;3.95;;;1.13;;
75746;SDS011;70632;52.232;21.038;2024-02-04T04:55:00;5.43;;;1.67;;
75746;SDS011;70632;52.232;21.038;2024-02-04T04:57:30;6.00;;;1.63;;
75746;SDS011;70632;52.232;21.038;2024-02-04T04:59:56;7.00;;;1.83;;
75746;SDS011;70632;52.232;21.038;2024-02-04T05:02:24;10.07;;;1.75;;
75746;SDS011;70632;52.232;21.038;2024-02-04T05:04:49;9.98;;;3.03;;
75746;SDS011;70632;52.232;21.038;2024-02-04T05:07:15;6.43;;;1.25;;
75746;SDS011;70632;52.232;21.038;2024-02-04T05:09:41;4.63;;;1.58;;
75746;SDS011;70632;52.232;21.038;2024-02-04T05:12:08;7.20;;;2.20;;
75746;SDS011;70632;52.232;21.038;2024-02-04T05:14:35;8.32;;;1.98;;
75746;SDS011;70632;52.232;21.038;2024-02-04T05:17:00;7.13;;;1.95;;
75746;SDS011;70632;52.232;21.038;2024-02-04T05:19:26;9.30;;;2.28;;
75746;SDS011;70632;52.232;21.038;2024-02-04T05:21:52;4.55;;;1.33;;
75746;SDS011;70632;52.232;21.038;2024-02-04T05:24:18;4.95;;;1.63;;
75746;SDS011;70632;52.232;21.038;2024-02-04T05:26:44;5.63;;;1.58;;
75746;SDS011;70632;52.232;21.038;2024-02-04T05:29:09;6.82;;;1.20;;
75746;SDS011;70632;52.232;21.038;2024-02-04T05:31:42;5.55;;;1.70;;
75746;SDS011;70632;52.232;21.038;2024-02-04T05:34:09;3.63;;;1.35;;
75746;SDS011;70632;52.232;21.038;2024-02-04T05:36:35;4.82;;;1.55;;
75746;SDS011;70632;52.232;21.038;2024-02-04T05:39:11;7.05;;;1.60;;
75746;SDS011;70632;52.232;21.038;2024-02-04T05:41:41;10.55;;;2.05;;
75746;SDS011;70632;52.232;21.038;2024-02-04T05:44:07;4.20;;;1.30;;
75746;SDS011;70632;52.232;21.038;2024-02-04T05:46:37;15.85;;;1.98;;
75746;SDS011;70632;52.232;21.038;2024-02-04T05:49:04;6.68;;;2.08;;
75746;SDS011;70632;52.232;21.038;2024-02-04T05:51:32;6.18;;;2.55;;
75746;SDS011;70632;52.232;21.038;2024-02-04T05:53:58;5.75;;;1.33;;
75746;SDS011;70632;52.232;21.038;2024-02-04T05:56:24;6.63;;;1.80;;
75746;SDS011;70632;52.232;21.038;2024-02-04T05:58:50;6.70;;;2.35;;
75746;SDS011;70632;52.232;21.038;2024-02-04T06:01:16;8.77;;;2.55;;
75746;SDS011;70632;52.232;21.038;2024-02-04T06:03:42;8.38;;;2.58;;
75746;SDS011;70632;52.232;21.038;2024-02-04T06:06:14;6.13;;;2.05;;
75746;SDS011;70632;52.232;21.038;2024-02-04T06:08:41;9.27;;;2.55;;
75746;SDS011;70632;52.232;21.038;2024-02-04T06:11:12;6.72;;;1.80;;
75746;SDS011;70632;52.232;21.038;2024-02-04T06:13:39;6.30;;;1.90;;
75746;SDS011;70632;52.232;21.038;2024-02-04T06:16:06;4.68;;;2.17;;
75746;SDS011;70632;52.232;21.038;2024-02-04T06:18:32;9.60;;;2.10;;
75746;SDS011;70632;52.232;21.038;2024-02-04T06:20:59;5.50;;;2.00;;
75746;SDS011;70632;52.232;21.038;2024-02-04T06:23:25;10.35;;;2.42;;
75746;SDS011;70632;52.232;21.038;2024-02-04T06:25:50;12.02;;;1.88;;
75746;SDS011;70632;52.232;21.038;2024-02-04T06:28:16;5.43;;;2.10;;
75746;SDS011;70632;52.232;21.038;2024-02-04T06:30:42;11.15;;;1.95;;
75746;SDS011;70632;52.232;21.038;2024-02-04T06:33:08;9.75;;;1.63;;
75746;SDS011;70632;52.232;21.038;2024-02-04T06:35:33;12.82;;;2.72;;
75746;SDS011;70632;52.232;21.038;2024-02-04T06:37:59;6.95;;;1.95;;
75746;SDS011;70632;52.232;21.038;2024-02-04T06:40:25;9.73;;;2.17;;
75746;SDS011;70632;52.232;21.038;2024-02-04T06:42:51;9.95;;;2.20;;
75746;SDS011;70632;52.232;21.038;2024-02-04T06:45:16;5.68;;;2.08;;
75746;SDS011;70632;52.232;21.038;2024-02-04T06:47:45;4.97;;;1.50;;
75746;SDS011;70632;52.232;21.038;2024-02-04T06:50:11;6.82;;;2.10;;
75746;SDS011;70632;52.232;21.038;2024-02-04T06:52:41;9.88;;;2.20;;
75746;SDS011;70632;52.232;21.038;2024-02-04T06:55:08;6.22;;;1.63;;
75746;SDS011;70632;52.232;21.038;2024-02-04T06:57:34;15.75;;;2.92;;
75746;SDS011;70632;52.232;21.038;2024-02-04T06:59:59;8.30;;;2.10;;
75746;SDS011;70632;52.232;21.038;2024-02-04T07:02:26;12.70;;;2.90;;
75746;SDS011;70632;52.232;21.038;2024-02-04T07:04:52;8.43;;;2.00;;
75746;SDS011;70632;52.232;21.038;2024-02-04T07:07:18;6.38;;;1.77;;
75746;SDS011;70632;52.232;21.038;2024-02-04T07:09:44;5.70;;;1.80;;
75746;SDS011;70632;52.232;21.038;2024-02-04T07:12:10;11.20;;;2.17;;
75746;SDS011;70632;52.232;21.038;2024-02-04T07:14:35;8.50;;;1.60;;
75746;SDS011;70632;52.232;21.038;2024-02-04T07:17:01;5.85;;;1.75;;
75746;SDS011;70632;52.232;21.038;2024-02-04T07:19:27;11.05;;;2.47;;
75746;SDS011;70632;52.232;21.038;2024-02-04T07:21:53;7.47;;;2.78;;
75746;SDS011;70632;52.232;21.038;2024-02-04T07:24:18;12.30;;;2.70;;
75746;SDS011;70632;52.232;21.038;2024-02-04T07:26:45;7.10;;;2.30;;
75746;SDS011;70632;52.232;21.038;2024-02-04T07:29:12;6.25;;;2.00;;
75746;SDS011;70632;52.232;21.038;2024-02-04T07:31:38;10.68;;;2.95;;
75746;SDS011;70632;52.232;21.038;2024-02-04T07:34:04;5.68;;;2.38;;
75746;SDS011;70632;52.232;21.038;2024-02-04T07:36:30;4.68;;;2.00;;
75746;SDS011;70632;52.232;21.038;2024-02-04T07:38:56;11.60;;;3.13;;
75746;SDS011;70632;52.232;21.038;2024-02-04T07:41:22;7.57;;;1.83;;
75746;SDS011;70632;52.232;21.038;2024-02-04T07:43:48;4.88;;;1.77;;
75746;SDS011;70632;52.232;21.038;2024-02-04T07:46:14;14.82;;;2.42;;
75746;SDS011;70632;52.232;21.038;2024-02-04T07:48:40;4.50;;;1.35;;
75746;SDS011;70632;52.232;21.038;2024-02-04T07:51:06;6.88;;;1.80;;
75746;SDS011;70632;52.232;21.038;2024-02-04T07:53:33;8.18;;;2.13;;
75746;SDS011;70632;52.232;21.038;2024-02-04T07:55:59;9.93;;;2.53;;
75746;SDS011;70632;52.232;21.038;2024-02-04T07:58:25;9.88;;;2.75;;
75746;SDS011;70632;52.232;21.038;2024-02-04T08:00:52;6.85;;;1.73;;
75746;SDS011;70632;52.232;21.038;2024-02-04T08:03:18;7.93;;;2.38;;
75746;SDS011;70632;52.232;21.038;2024-02-04T08:05:44;9.68;;;2.30;;
75746;SDS011;70632;52.232;21.038;2024-02-04T08:08:10;12.95;;;2.35;;
75746;SDS011;70632;52.232;21.038;2024-02-04T08:10:36;13.93;;;1.90;;
75746;SDS011;70632;52.232;21.038;2024-02-04T08:13:01;15.65;;;2.97;;
75746;SDS011;70632;52.232;21.038;2024-02-04T08:15:27;9.07;;;2.20;;
75746;SDS011;70632;52.232;21.038;2024-02-04T08:17:53;7.78;;;2.33;;
75746;SDS011;70632;52.232;21.038;2024-02-04T08:20:19;9.95;;;2.38;;
75746;SDS011;70632;52.232;21.038;2024-02-04T08:22:46;5.60;;;2.45;;
75746;SDS011;70632;52.232;21.038;2024-02-04T08:25:12;8.48;;;2.35;;
75746;SDS011;70632;52.232;21.038;2024-02-04T08:27:38;15.88;;;3.25;;
75746;SDS011;70632;52.232;21.038;2024-02-04T08:30:05;9.55;;;2.55;;
75746;SDS011;70632;52.232;21.038;2024-02-04T08:32:31;11.55;;;2.70;;
75746;SDS011;70632;52.232;21.038;2024-02-04T08:34:57;12.43;;;3.05;;
75746;SDS011;70632;52.232;21.038;2024-02-04T08:37:23;14.55;;;2.70;;
75746;SDS011;70632;52.232;21.038;2024-02-04T08:39:48;6.53;;;2.80;;
75746;SDS011;70632;52.232;21.038;2024-02-04T08:42:15;7.32;;;2.85;;
75746;SDS011;70632;52.232;21.038;2024-02-04T08:44:40;6.13;;;2.72;;
75746;SDS011;70632;52.232;21.038;2024-02-04T08:47:06;8.20;;;2.15;;
75746;SDS011;70632;52.232;21.038;2024-02-04T08:52:01;8.85;;;2.53;;
75746;SDS011;70632;52.232;21.038;2024-02-04T08:54:28;8.07;;;2.65;;
75746;SDS011;70632;52.232;21.038;2024-02-04T08:56:54;7.53;;;2.15;;
75746;SDS011;70632;52.232;21.038;2024-02-04T08:59:20;9.77;;;2.67;;
75746;SDS011;70632;52.232;21.038;2024-02-04T09:01:45;6.32;;;1.95;;
75746;SDS011;70632;52.232;21.038;2024-02-04T09:04:11;6.65;;;2.72;;
75746;SDS011;70632;52.232;21.038;2024-02-04T09:06:37;10.48;;;2.60;;
75746;SDS011;70632;52.232;21.038;2024-02-04T09:09:03;6.55;;;2.20;;
75746;SDS011;70632;52.232;21.038;2024-02-04T09:11:29;11.77;;;2.28;;
75746;SDS011;70632;52.232;21.038;2024-02-04T09:13:55;10.13;;;3.25;;
75746;SDS011;70632;52.232;21.038;2024-02-04T09:16:20;12.07;;;2.85;;
75746;SDS011;70632;52.232;21.038;2024-02-04T09:18:46;5.78;;;2.50;;
75746;SDS011;70632;52.232;21.038;2024-02-04T09:21:12;10.10;;;2.50;;
75746;SDS011;70632;52.232;21.038;2024-02-04T09:23:39;15.35;;;3.55;;
75746;SDS011;70632;52.232;21.038;2024-02-04T09:26:05;4.80;;;1.92;;
75746;SDS011;70632;52.232;21.038;2024-02-04T09:28:31;7.88;;;3.40;;
75746;SDS011;70632;52.232;21.038;2024-02-04T09:30:57;8.40;;;2.22;;
75746;SDS011;70632;52.232;21.038;2024-02-04T09:33:22;14.68;;;3.17;;
75746;SDS011;70632;52.232;21.038;2024-02-04T09:35:48;11.55;;;2.40;;
75746;SDS011;70632;52.232;21.038;2024-02-04T09:38:15;7.47;;;2.42;;
75746;SDS011;70632;52.232;21.038;2024-02-04T09:40:41;12.35;;;2.58;;
75746;SDS011;70632;52.232;21.038;2024-02-04T09:43:07;11.88;;;2.47;;
75746;SDS011;70632;52.232;21.038;2024-02-04T09:45:33;14.82;;;3.30;;
75746;SDS011;70632;52.232;21.038;2024-02-04T09:48:00;10.40;;;2.47;;
75746;SDS011;70632;52.232;21.038;2024-02-04T09:50:26;6.32;;;2.25;;
75746;SDS011;70632;52.232;21.038;2024-02-04T09:52:53;11.90;;;2.78;;
75746;SDS011;70632;52.232;21.038;2024-02-04T09:55:28;13.40;;;2.42;;
75746;SDS011;70632;52.232;21.038;2024-02-04T09:57:55;15.20;;;3.17;;
75746;SDS011;70632;52.232;21.038;2024-02-04T10:00:21;10.50;;;2.42;;
75746;SDS011;70632;52.232;21.038;2024-02-04T10:02:47;11.07;;;2.25;;
75746;SDS011;70632;52.232;21.038;2024-02-04T10:05:14;11.43;;;2.72;;
75746;SDS011;70632;52.232;21.038;2024-02-04T10:07:40;17.20;;;2.85;;
75746;SDS011;70632;52.232;21.038;2024-02-04T10:10:06;10.55;;;2.58;;
75746;SDS011;70632;52.232;21.038;2024-02-04T10:12:33;12.20;;;3.70;;
75746;SDS011;70632;52.232;21.038;2024-02-04T10:15:01;11.50;;;2.45;;
75746;SDS011;70632;52.232;21.038;2024-02-04T10:17:30;10.98;;;3.22;;
75746;SDS011;70632;52.232;21.038;2024-02-04T10:19:56;12.25;;;3.38;;
75746;SDS011;70632;52.232;21.038;2024-02-04T10:22:22;11.68;;;2.78;;
75746;SDS011;70632;52.232;21.038;2024-02-04T10:24:51;14.13;;;3.38;;
75746;SDS011;70632;52.232;21.038;2024-02-04T10:27:17;7.53;;;2.63;;
75746;SDS011;70632;52.232;21.038;2024-02-04T10:29:44;6.30;;;2.33;;
75746;SDS011;70632;52.232;21.038;2024-02-04T10:32:10;8.13;;;2.40;;
75746;SDS011;70632;52.232;21.038;2024-02-04T10:34:36;10.00;;;2.92;;
75746;SDS011;70632;52.232;21.038;2024-02-04T10:37:03;8.20;;;2.13;;
75746;SDS011;70632;52.232;21.038;2024-02-04T10:39:29;12.80;;;3.20;;
75746;SDS011;70632;52.232;21.038;2024-02-04T10:41:55;9.98;;;2.55;;
75746;SDS011;70632;52.232;21.038;2024-02-04T10:44:26;11.73;;;2.92;;
75746;SDS011;70632;52.232;21.038;2024-02-04T10:46:56;6.32;;;2.13;;
75746;SDS011;70632;52.232;21.038;2024-02-04T10:49:23;9.32;;;2.08;;
75746;SDS011;70632;52.232;21.038;2024-02-04T10:54:20;12.40;;;2.65;;
75746;SDS011;70632;52.232;21.038;2024-02-04T10:56:52;11.95;;;4.32;;
75746;SDS011;70632;52.232;21.038;2024-02-04T10:59:22;12.20;;;3.38;;
75746;SDS011;70632;52.232;21.038;2024-02-04T11:01:49;8.15;;;3.50;;
75746;SDS011;70632;52.232;21.038;2024-02-04T11:04:16;11.30;;;4.35;;
75746;SDS011;70632;52.232;21.038;2024-02-04T11:06:42;10.05;;;2.80;;
75746;SDS011;70632;52.232;21.038;2024-02-04T11:09:09;12.98;;;3.47;;
75746;SDS011;70632;52.232;21.038;2024-02-04T11:11:37;14.48;;;3.85;;
75746;SDS011;70632;52.232;21.038;2024-02-04T11:14:05;8.18;;;2.20;;
75746;SDS011;70632;52.232;21.038;2024-02-04T11:19:32;19.13;;;3.33;;
75746;SDS011;70632;52.232;21.038;2024-02-04T11:24:59;10.82;;;3.10;;
75746;SDS011;70632;52.232;21.038;2024-02-04T11:27:38;9.40;;;3.00;;
75746;SDS011;70632;52.232;21.038;2024-02-04T11:30:04;11.30;;;2.75;;
75746;SDS011;70632;52.232;21.038;2024-02-04T11:32:31;8.57;;;2.25;;
75746;SDS011;70632;52.232;21.038;2024-02-04T11:34:57;14.00;;;3.17;;
75746;SDS011;70632;52.232;21.038;2024-02-04T11:37:26;16.27;;;3.50;;
75746;SDS011;70632;52.232;21.038;2024-02-04T11:39:53;10.70;;;3.05;;
75746;SDS011;70632;52.232;21.038;2024-02-04T11:42:22;7.65;;;3.45;;
75746;SDS011;70632;52.232;21.038;2024-02-04T11:44:48;12.90;;;3.88;;
75746;SDS011;70632;52.232;21.038;2024-02-04T11:47:24;16.23;;;3.10;;
75746;SDS011;70632;52.232;21.038;2024-02-04T11:49:57;10.30;;;3.33;;
75746;SDS011;70632;52.232;21.038;2024-02-04T11:52:27;11.52;;;3.42;;
75746;SDS011;70632;52.232;21.038;2024-02-04T11:54:53;12.68;;;3.25;;
75746;SDS011;70632;52.232;21.038;2024-02-04T11:57:20;15.40;;;3.50;;
75746;SDS011;70632;52.232;21.038;2024-02-04T11:59:46;9.55;;;3.40;;
75746;SDS011;70632;52.232;21.038;2024-02-04T12:02:12;20.52;;;4.95;;
75746;SDS011;70632;52.232;21.038;2024-02-04T12:04:41;7.43;;;2.92;;
75746;SDS011;70632;52.232;21.038;2024-02-04T12:07:08;12.82;;;4.43;;
75746;SDS011;70632;52.232;21.038;2024-02-04T12:09:35;10.50;;;3.05;;
75746;SDS011;70632;52.232;21.038;2024-02-04T12:12:02;11.90;;;4.03;;
75746;SDS011;70632;52.232;21.038;2024-02-04T12:14:30;7.05;;;3.00;;
75746;SDS011;70632;52.232;21.038;2024-02-04T12:16:56;8.45;;;2.42;;
75746;SDS011;70632;52.232;21.038;2024-02-04T12:19:25;8.82;;;3.47;;
75746;SDS011;70632;52.232;21.038;2024-02-04T12:21:54;11.82;;;5.07;;
75746;SDS011;70632;52.232;21.038;2024-02-04T12:24:20;9.82;;;2.97;;
75746;SDS011;70632;52.232;21.038;2024-02-04T12:26:46;9.30;;;3.40;;
75746;SDS011;70632;52.232;21.038;2024-02-04T12:29:13;11.38;;;3.90;;
75746;SDS011;70632;52.232;21.038;2024-02-04T12:31:40;12.73;;;3.67;;
75746;SDS011;70632;52.232;21.038;2024-02-04T12:34:05;12.60;;;3.80;;
75746;SDS011;70632;52.232;21.038;2024-02-04T12:36:33;12.13;;;3.60;;
75746;SDS011;70632;52.232;21.038;2024-02-04T12:39:00;15.05;;;3.53;;
75746;SDS011;70632;52.232;21.038;2024-02-04T12:41:27;8.52;;;3.63;;
75746;SDS011;70632;52.232;21.038;2024-02-04T12:43:55;12.98;;;4.28;;
75746;SDS011;70632;52.232;21.038;2024-02-04T12:46:22;9.23;;;3.38;;
75746;SDS011;70632;52.232;21.038;2024-02-04T12:48:54;12.80;;;3.28;;
75746;SDS011;70632;52.232;21.038;2024-02-04T13:01:57;13.65;;;5.70;;
75746;SDS011;70632;52.232;21.038;2024-02-04T13:04:23;11.10;;;3.50;;
75746;SDS011;70632;52.232;21.038;2024-02-04T13:06:50;13.25;;;3.83;;
75746;SDS011;70632;52.232;21.038;2024-02-04T13:09:16;12.43;;;4.05;;
75746;SDS011;70632;52.232;21.038;2024-02-04T13:11:43;14.13;;;4.22;;
75746;SDS011;70632;52.232;21.038;2024-02-04T13:14:09;10.30;;;4.32;;
75746;SDS011;70632;52.232;21.038;2024-02-04T13:16:35;14.00;;;4.20;;
75746;SDS011;70632;52.232;21.038;2024-02-04T13:19:02;16.83;;;4.72;;
75746;SDS011;70632;52.232;21.038;2024-02-04T13:21:28;10.23;;;3.72;;
75746;SDS011;70632;52.232;21.038;2024-02-04T13:23:54;8.43;;;2.95;;
75746;SDS011;70632;52.232;21.038;2024-02-04T13:26:20;10.15;;;4.25;;
75746;SDS011;70632;52.232;21.038;2024-02-04T13:28:46;15.20;;;4.07;;
75746;SDS011;70632;52.232;21.038;2024-02-04T13:31:13;7.13;;;3.65;;
75746;SDS011;70632;52.232;21.038;2024-02-04T13:33:38;8.23;;;4.32;;
75746;SDS011;70632;52.232;21.038;2024-02-04T13:36:08;11.00;;;4.07;;
75746;SDS011;70632;52.232;21.038;2024-02-04T13:38:35;14.65;;;3.97;;
75746;SDS011;70632;52.232;21.038;2024-02-04T13:41:01;15.13;;;4.05;;
75746;SDS011;70632;52.232;21.038;2024-02-04T13:43:31;9.77;;;4.03;;
75746;SDS011;70632;52.232;21.038;2024-02-04T13:45:59;16.67;;;4.18;;
75746;SDS011;70632;52.232;21.038;2024-02-04T13:48:25;10.05;;;3.63;;
75746;SDS011;70632;52.232;21.038;2024-02-04T13:50:51;11.40;;;4.30;;
75746;SDS011;70632;52.232;21.038;2024-02-04T13:53:19;8.35;;;3.35;;
75746;SDS011;70632;52.232;21.038;2024-02-04T13:55:45;10.10;;;3.90;;
75746;SDS011;70632;52.232;21.038;2024-02-04T13:58:11;20.90;;;4.38;;
75746;SDS011;70632;52.232;21.038;2024-02-04T14:00:37;13.82;;;3.88;;
75746;SDS011;70632;52.232;21.038;2024-02-04T14:03:02;6.50;;;2.80;;
75746;SDS011;70632;52.232;21.038;2024-02-04T14:05:28;5.82;;;3.13;;
75746;SDS011;70632;52.232;21.038;2024-02-04T14:07:57;10.68;;;3.33;;
75746;SDS011;70632;52.232;21.038;2024-02-04T14:10:23;7.05;;;3.47;;
75746;SDS011;70632;52.232;21.038;2024-02-04T14:12:48;16.75;;;4.40;;
75746;SDS011;70632;52.232;21.038;2024-02-04T14:15:14;9.32;;;4.00;;
75746;SDS011;70632;52.232;21.038;2024-02-04T14:17:40;10.25;;;3.05;;
75746;SDS011;70632;52.232;21.038;2024-02-04T14:20:06;7.03;;;3.33;;
75746;SDS011;70632;52.232;21.038;2024-02-04T14:22:32;9.50;;;3.65;;
75746;SDS011;70632;52.232;21.038;2024-02-04T14:24:58;9.20;;;3.75;;
75746;SDS011;70632;52.232;21.038;2024-02-04T14:27:25;11.43;;;3.22;;
75746;SDS011;70632;52.232;21.038;2024-02-04T14:29:51;10.82;;;3.45;;
75746;SDS011;70632;52.232;21.038;2024-02-04T14:32:16;7.28;;;2.75;;
75746;SDS011;70632;52.232;21.038;2024-02-04T14:34:44;7.82;;;2.58;;
75746;SDS011;70632;52.232;21.038;2024-02-04T14:37:10;7.15;;;3.38;;
75746;SDS011;70632;52.232;21.038;2024-02-04T14:39:37;13.13;;;3.40;;
75746;SDS011;70632;52.232;21.038;2024-02-04T14:42:03;11.68;;;3.88;;
75746;SDS011;70632;52.232;21.038;2024-02-04T14:44:29;10.02;;;3.10;;
75746;SDS011;70632;52.232;21.038;2024-02-04T14:46:54;7.28;;;2.90;;
75746;SDS011;70632;52.232;21.038;2024-02-04T14:49:20;19.15;;;3.97;;
75746;SDS011;70632;52.232;21.038;2024-02-04T14:51:46;7.80;;;3.13;;
75746;SDS011;70632;52.232;21.038;2024-02-04T14:54:12;8.10;;;3.00;;